Terminal Aerodrome Forecast
Issued by NWS

Home | Current Version | Previous Version | Text Only | Print | Product List | Glossary On
Versions: 1 2 3 4 5 6 7 8 9 10 11 12 13 14 15 16 17
000
FTUS45 KABQ 071956 AAA
TAFLVS
TAF AMD
KLVS 071956Z 0720/0818 10007KT P6SM VCSH BKN015 OVC035
      TEMPO 0720/0722 2SM -SHRA BR BKN010 OVC030
     FM072200 17011KT P6SM VCTS FEW020 BKN035CB
      TEMPO 0722/0801 -TSRA BKN025CB
     FM080300 18010KT P6SM VCSH SCT025 BKN040
     FM080500 19008KT P6SM BKN012
      TEMPO 0809/0812 3SM BR BKN008=

USA.gov is the U.S. government's official web portal to all federal, state and local government web resources and services.